createdAt,value
2019-02-20T00:02:09.415Z,-69
2019-02-20T00:04:42.088Z,-70
2019-02-20T00:07:14.406Z,-70
2019-02-20T00:09:47.540Z,-69
2019-02-20T00:12:19.846Z,-69
2019-02-20T00:14:51.853Z,-70
2019-02-20T00:17:23.908Z,-69
2019-02-20T00:19:56.320Z,-71
2019-02-20T00:22:28.329Z,-71
2019-02-20T00:25:00.546Z,-71
2019-02-20T00:27:33.018Z,-71
2019-02-20T00:30:05.116Z,-71
2019-02-20T00:32:37.320Z,-71
2019-02-20T00:35:09.868Z,-72
2019-02-20T00:37:41.861Z,-71
2019-02-20T00:40:13.844Z,-71
2019-02-20T00:42:45.856Z,-72
2019-02-20T00:45:36.480Z,-72
2019-02-20T00:48:39.796Z,-72
2019-02-20T00:51:21.141Z,-70
2019-02-20T00:53:56.502Z,-70
2019-02-20T00:56:28.846Z,-70
2019-02-20T00:59:00.860Z,-70
2019-02-20T01:01:33.336Z,-69
2019-02-20T01:04:06.038Z,-70
2019-02-20T01:06:37.915Z,-70
2019-02-20T01:09:10.855Z,-70
2019-02-20T01:11:42.819Z,-69
2019-02-20T01:14:14.844Z,-70
2019-02-20T01:16:47.335Z,-69
2019-02-20T01:19:19.890Z,-69
2019-02-20T01:21:52.331Z,-70
2019-02-20T01:24:24.419Z,-69
2019-02-20T01:26:56.407Z,-69
2019-02-20T01:29:28.824Z,-69
2019-02-20T01:32:01.033Z,-69
2019-02-20T01:34:33.866Z,-69
2019-02-20T01:37:05.794Z,-70
2019-02-20T01:39:37.823Z,-69
2019-02-20T01:42:09.842Z,-69
2019-02-20T01:44:42.343Z,-69
2019-02-20T01:47:14.472Z,-69
2019-02-20T01:49:46.847Z,-69
2019-02-20T01:52:18.820Z,-71
2019-02-20T01:54:50.856Z,-69
2019-02-20T01:57:22.936Z,-69
2019-02-20T01:59:54.910Z,-69
2019-02-20T02:02:27.317Z,-69
2019-02-20T02:04:59.787Z,-69
2019-02-20T02:07:30.668Z,-70
2019-02-20T02:10:02.873Z,-69
2019-02-20T02:12:34.767Z,-69
2019-02-20T02:15:07.515Z,-69
2019-02-20T02:17:39.802Z,-70
2019-02-20T02:20:12.359Z,-69
2019-02-20T02:22:44.830Z,-70
2019-02-20T02:25:17.366Z,-69
2019-02-20T02:27:49.835Z,-69
2019-02-20T02:30:21.886Z,-69
2019-02-20T02:32:54.422Z,-69
2019-02-20T02:35:26.813Z,-69
2019-02-20T02:37:58.799Z,-69
2019-02-20T02:40:30.808Z,-69
2019-02-20T02:43:02.815Z,-69
2019-02-20T02:45:34.814Z,-69
2019-02-20T02:48:06.866Z,-69
2019-02-20T02:50:38.871Z,-69
2019-02-20T02:53:10.939Z,-69
2019-02-20T02:55:42.822Z,-69
2019-02-20T02:58:14.816Z,-69
2019-02-20T03:00:46.884Z,-69
2019-02-20T03:03:18.846Z,-70
2019-02-20T03:05:50.852Z,-69
2019-02-20T03:08:22.890Z,-69
2019-02-20T03:10:54.816Z,-69
2019-02-20T03:13:26.850Z,-69
2019-02-20T03:15:58.829Z,-69
2019-02-20T03:18:31.341Z,-69
2019-02-20T03:21:03.374Z,-69
2019-02-20T03:23:40.195Z,-69
2019-02-20T03:26:10.332Z,-69
2019-02-20T03:28:42.841Z,-69
2019-02-20T03:31:14.844Z,-69
2019-02-20T03:33:47.343Z,-69
2019-02-20T03:36:20.346Z,-69
2019-02-20T03:38:52.857Z,-70
2019-02-20T03:41:24.819Z,-69
2019-02-20T03:43:56.836Z,-69
2019-02-20T03:46:28.850Z,-69
2019-02-20T03:49:00.832Z,-70
2019-02-20T03:51:32.847Z,-70
2019-02-20T03:54:05.346Z,-69
2019-02-20T03:56:37.809Z,-69
2019-02-20T03:59:09.930Z,-69
2019-02-20T04:01:41.859Z,-69
2019-02-20T04:04:13.865Z,-70
2019-02-20T04:06:45.825Z,-70
2019-02-20T04:09:17.846Z,-69
2019-02-20T04:11:49.826Z,-69
2019-02-20T04:14:21.834Z,-69
2019-02-20T04:16:53.876Z,-70
2019-02-20T04:19:25.825Z,-69
2019-02-20T04:21:57.821Z,-69
2019-02-20T04:24:30.019Z,-69
2019-02-20T04:27:01.873Z,-69
2019-02-20T04:29:34.320Z,-69
2019-02-20T04:32:06.828Z,-69
2019-02-20T04:34:38.827Z,-69
2019-02-20T04:37:12.910Z,-69
2019-02-20T04:39:44.824Z,-69
2019-02-20T04:42:17.330Z,-69
2019-02-20T04:44:49.531Z,-69
2019-02-20T04:47:21.836Z,-69
2019-02-20T04:49:53.820Z,-69
2019-02-20T04:52:25.828Z,-69
2019-02-20T04:54:57.850Z,-70
2019-02-20T04:57:29.856Z,-71
2019-02-20T05:00:01.859Z,-70
2019-02-20T05:02:34.816Z,-68
2019-02-20T05:05:07.326Z,-69
2019-02-20T05:07:39.819Z,-69
2019-02-20T05:10:12.847Z,-70
2019-02-20T05:12:44.776Z,-70
2019-02-20T05:15:17.023Z,-70
2019-02-20T05:17:49.870Z,-69
2019-02-20T05:20:22.352Z,-69
2019-02-20T05:22:54.867Z,-70
2019-02-20T05:25:26.869Z,-70
2019-02-20T05:27:58.826Z,-70
2019-02-20T05:30:30.898Z,-69
2019-02-20T05:33:02.835Z,-69
2019-02-20T05:35:34.869Z,-70
2019-02-20T05:38:07.344Z,-70
2019-02-20T05:40:39.493Z,-70
2019-02-20T05:43:11.861Z,-69
2019-02-20T05:45:43.902Z,-70
2019-02-20T05:48:15.879Z,-69
2019-02-20T05:50:48.327Z,-69
2019-02-20T05:53:21.358Z,-69
2019-02-20T05:55:54.065Z,-70
2019-02-20T05:58:26.852Z,-70
2019-02-20T06:00:58.873Z,-70
2019-02-20T06:03:31.343Z,-69
2019-02-20T06:06:03.809Z,-69
2019-02-20T06:08:35.875Z,-70
2019-02-20T06:11:14.650Z,-70
2019-02-20T06:13:41.908Z,-69
2019-02-20T06:16:13.847Z,-69
2019-02-20T06:18:45.864Z,-70
2019-02-20T06:21:17.840Z,-70
2019-02-20T06:23:49.857Z,-69
2019-02-20T06:26:22.105Z,-70
2019-02-20T06:28:54.822Z,-69
2019-02-20T06:31:26.815Z,-70
2019-02-20T06:33:58.869Z,-70
2019-02-20T06:36:31.329Z,-70
2019-02-20T06:39:05.445Z,-69
2019-02-20T06:41:39.432Z,-69
2019-02-20T06:44:11.879Z,-70
2019-02-20T06:46:43.850Z,-69
2019-02-20T06:49:15.866Z,-69
2019-02-20T06:51:47.837Z,-70
2019-02-20T06:54:19.918Z,-69
2019-02-20T06:56:51.817Z,-70
2019-02-20T06:59:23.848Z,-70
2019-02-20T07:01:55.951Z,-69
2019-02-20T07:04:28.062Z,-69
2019-02-20T07:10:46.798Z,-74
2019-02-20T07:14:31.358Z,-75
2019-02-20T07:17:43.776Z,-75
2019-02-20T07:21:11.626Z,-76
2019-02-20T07:25:05.313Z,-76
2019-02-20T07:28:47.757Z,-76
2019-02-20T07:31:18.510Z,-76
2019-02-20T07:33:50.745Z,-76
2019-02-20T07:36:21.455Z,-75
2019-02-20T07:38:53.322Z,-76
2019-02-20T07:41:25.358Z,-76
2019-02-20T07:43:57.310Z,-76
2019-02-20T07:46:28.837Z,-75
2019-02-20T07:49:00.392Z,-75
2019-02-20T07:51:32.073Z,-76
2019-02-20T07:54:03.779Z,-76
2019-02-20T07:56:35.269Z,-75
2019-02-20T08:01:49.621Z,-75
2019-02-20T08:04:21.348Z,-77
2019-02-20T08:06:53.058Z,-76
2019-02-20T08:09:25.302Z,-77
2019-02-20T08:11:57.300Z,-77
2019-02-20T08:14:29.305Z,-77
2019-02-20T08:17:01.354Z,-77
2019-02-20T08:19:33.391Z,-77
2019-02-20T08:22:05.336Z,-76
2019-02-20T08:24:37.067Z,-76
2019-02-20T08:27:08.811Z,-77
2019-02-20T08:29:40.851Z,-77
2019-02-20T08:32:13.063Z,-77
2019-02-20T08:34:44.792Z,-76
2019-02-20T08:37:16.613Z,-77
2019-02-20T08:39:48.675Z,-76
2019-02-20T08:42:20.618Z,-76
2019-02-20T08:44:52.834Z,-77
2019-02-20T08:47:24.393Z,-76
2019-02-20T08:49:56.321Z,-77
2019-02-20T08:52:28.256Z,-77
2019-02-20T08:55:00.255Z,-78
2019-02-20T08:57:32.774Z,-76
2019-02-20T09:00:04.758Z,-76
2019-02-20T09:02:35.597Z,-76
2019-02-20T09:05:09.060Z,-76
2019-02-20T09:07:40.781Z,-77
2019-02-20T09:10:12.841Z,-76
2019-02-20T09:12:47.310Z,-76
2019-02-20T09:15:19.805Z,-76
2019-02-20T09:17:52.236Z,-76
2019-02-20T09:20:24.293Z,-76
2019-02-20T09:22:56.298Z,-76
2019-02-20T09:25:28.858Z,-76
2019-02-20T09:28:00.816Z,-76
2019-02-20T09:30:34.264Z,-76
2019-02-20T09:33:06.824Z,-77
2019-02-20T09:35:38.894Z,-76
2019-02-20T09:38:10.799Z,-76
2019-02-20T09:40:42.814Z,-77
2019-02-20T09:43:14.824Z,-77
2019-02-20T09:45:46.755Z,-76
2019-02-20T09:48:17.651Z,-77
2019-02-20T09:50:49.799Z,-76
2019-02-20T09:53:21.783Z,-76
2019-02-20T09:55:53.804Z,-76
2019-02-20T09:58:26.414Z,-76
2019-02-20T10:00:58.677Z,-77
2019-02-20T10:03:30.835Z,-77
2019-02-20T10:06:02.827Z,-77
2019-02-20T10:08:34.783Z,-76
2019-02-20T10:11:05.841Z,-76
2019-02-20T10:13:37.798Z,-76
2019-02-20T10:16:09.795Z,-77
2019-02-20T10:18:41.814Z,-76
2019-02-20T10:21:13.782Z,-77
2019-02-20T10:23:45.309Z,-78
2019-02-20T10:26:17.504Z,-76
2019-02-20T10:28:49.494Z,-76
2019-02-20T10:31:21.767Z,-77
2019-02-20T10:33:52.638Z,-77
2019-02-20T10:36:24.889Z,-77
2019-02-20T10:38:57.317Z,-77
2019-02-20T10:41:29.318Z,-77
2019-02-20T10:44:01.325Z,-76
2019-02-20T10:46:33.863Z,-76
2019-02-20T10:49:05.753Z,-76
2019-02-20T10:51:38.822Z,-77
2019-02-20T10:54:12.491Z,-77
2019-02-20T10:56:44.499Z,-75
2019-02-20T10:59:16.810Z,-75
2019-02-20T11:01:48.848Z,-75
2019-02-20T11:04:20.804Z,-75
2019-02-20T11:06:52.839Z,-76
2019-02-20T11:09:24.815Z,-77
2019-02-20T11:11:58.755Z,-76
2019-02-20T11:14:29.813Z,-76
2019-02-20T11:17:01.831Z,-75
2019-02-20T11:19:33.838Z,-75
2019-02-20T11:22:05.824Z,-75
2019-02-20T11:24:37.807Z,-75
2019-02-20T11:27:09.824Z,-76
2019-02-20T11:29:41.875Z,-75
2019-02-20T11:32:13.779Z,-75
2019-02-20T11:34:45.842Z,-77
2019-02-20T11:37:17.870Z,-75
2019-02-20T11:39:49.751Z,-77
2019-02-20T11:42:20.698Z,-78
2019-02-20T11:44:51.647Z,-76
2019-02-20T11:47:23.809Z,-77
2019-02-20T11:49:57.088Z,-77
2019-02-20T11:52:36.422Z,-76
2019-02-20T11:55:02.848Z,-77
2019-02-20T11:57:34.811Z,-77
2019-02-20T12:00:07.362Z,-77
2019-02-20T12:02:39.798Z,-79
2019-02-20T12:05:11.823Z,-77
2019-02-20T12:07:43.791Z,-76
2019-02-20T12:10:15.317Z,-77
2019-02-20T12:12:47.807Z,-78
2019-02-20T12:15:19.839Z,-78
2019-02-20T12:17:51.848Z,-77
2019-02-20T12:20:23.800Z,-75
2019-02-20T12:22:55.826Z,-77
2019-02-20T12:25:27.774Z,-78
2019-02-20T12:27:59.699Z,-77
2019-02-20T12:30:30.734Z,-77
2019-02-20T12:33:01.659Z,-77
2019-02-20T12:35:33.851Z,-77
2019-02-20T12:38:05.798Z,-77
2019-02-20T12:40:37.790Z,-77
2019-02-20T12:43:10.310Z,-77
2019-02-20T12:45:42.812Z,-78
2019-02-20T12:48:14.265Z,-77
2019-02-20T12:50:46.308Z,-77
2019-02-20T12:53:19.070Z,-79
2019-02-20T12:55:51.311Z,-77
2019-02-20T12:58:23.774Z,-78
2019-02-20T13:00:55.849Z,-77
2019-02-20T13:03:27.820Z,-77
2019-02-20T13:05:59.841Z,-77
2019-02-20T13:08:31.830Z,-77
2019-02-20T13:11:03.800Z,-77
2019-02-20T13:13:35.859Z,-77
2019-02-20T13:16:09.644Z,-77
2019-02-20T13:18:41.818Z,-77
2019-02-20T13:21:13.840Z,-77
2019-02-20T13:23:45.719Z,-77
2019-02-20T13:26:16.678Z,-76
2019-02-20T13:28:47.666Z,-77
2019-02-20T13:31:18.637Z,-77
2019-02-20T13:33:49.702Z,-77
2019-02-20T13:36:22.277Z,-77
2019-02-20T13:38:54.318Z,-77
2019-02-20T13:41:26.522Z,-77
2019-02-20T13:43:58.819Z,-77
2019-02-20T13:46:30.824Z,-77
2019-02-20T13:49:02.818Z,-76
2019-02-20T13:51:36.329Z,-76
2019-02-20T13:54:08.786Z,-76
2019-02-20T13:56:40.790Z,-76
2019-02-20T13:59:11.681Z,-77
2019-02-20T14:01:43.265Z,-77
2019-02-20T14:04:16.306Z,-76
2019-02-20T14:06:48.394Z,-76
2019-02-20T14:09:20.707Z,-76
2019-02-20T14:11:52.622Z,-77
2019-02-20T14:14:24.826Z,-76
2019-02-20T14:16:57.058Z,-77
2019-02-20T14:19:28.744Z,-77
2019-02-20T14:22:00.645Z,-75
2019-02-20T14:24:31.446Z,-77
2019-02-20T14:27:10.496Z,-76
2019-02-20T14:29:37.302Z,-77
2019-02-20T14:32:09.314Z,-77
2019-02-20T14:34:41.307Z,-77
2019-02-20T14:37:13.309Z,-77
2019-02-20T14:39:45.309Z,-76
2019-02-20T14:42:16.625Z,-76
2019-02-20T14:44:48.777Z,-77
2019-02-20T14:47:20.753Z,-78
2019-02-20T14:49:51.501Z,-77
2019-02-20T14:52:23.315Z,-76
2019-02-20T14:54:54.919Z,-78
2019-02-20T14:57:26.845Z,-78
2019-02-20T14:59:58.366Z,-76
2019-02-20T15:02:30.311Z,-77
2019-02-20T15:05:02.052Z,-77
2019-02-20T15:07:33.902Z,-77
2019-02-20T15:10:05.759Z,-77
2019-02-20T15:12:37.391Z,-76
2019-02-20T15:15:10.778Z,-76
2019-02-20T15:17:42.727Z,-77
2019-02-20T15:20:13.487Z,-77
2019-02-20T15:22:45.310Z,-78
2019-02-20T15:25:17.317Z,-77
2019-02-20T15:27:49.069Z,-77
2019-02-20T15:30:20.708Z,-77
2019-02-20T15:32:51.503Z,-77
2019-02-20T15:35:23.310Z,-76
2019-02-20T15:37:54.882Z,-76
2019-02-20T15:40:26.858Z,-77
2019-02-20T15:42:58.606Z,-77
2019-02-20T15:45:29.664Z,-77
2019-02-20T15:48:01.787Z,-75
2019-02-20T15:50:32.638Z,-78
2019-02-20T15:53:04.053Z,-76
2019-02-20T15:55:35.629Z,-76
2019-02-20T15:58:06.623Z,-77
2019-02-20T16:00:38.786Z,-77
2019-02-20T16:03:10.802Z,-77
2019-02-20T16:05:42.742Z,-76
2019-02-20T16:08:13.964Z,-76
2019-02-20T16:10:45.731Z,-76
2019-02-20T16:13:16.629Z,-76
2019-02-20T16:15:48.263Z,-74
2019-02-20T16:18:20.102Z,-76
2019-02-20T16:20:51.786Z,-76
2019-02-20T16:23:23.832Z,-76
2019-02-20T16:25:55.798Z,-76
2019-02-20T16:28:33.640Z,-76
2019-02-20T16:31:01.316Z,-75
2019-02-20T16:33:33.041Z,-76
2019-02-20T16:36:04.781Z,-76
2019-02-20T16:38:35.646Z,-76
2019-02-20T16:41:06.463Z,-77
2019-02-20T16:43:38.499Z,-78
2019-02-20T16:46:10.790Z,-75
2019-02-20T16:48:43.230Z,-76
2019-02-20T16:51:15.334Z,-77
2019-02-20T16:56:31.796Z,-75
2019-02-20T16:59:05.139Z,-77
2019-02-20T17:01:37.301Z,-77
2019-02-20T17:04:09.325Z,-77
2019-02-20T17:06:41.324Z,-77
2019-02-20T17:09:13.769Z,-77
2019-02-20T17:11:45.868Z,-77
2019-02-20T17:14:17.816Z,-77
2019-02-20T17:16:49.770Z,-76
2019-02-20T17:19:20.629Z,-76
2019-02-20T17:21:52.756Z,-76
2019-02-20T17:24:23.605Z,-78
2019-02-20T17:26:55.777Z,-78
2019-02-20T17:29:27.806Z,-78
2019-02-20T17:31:59.775Z,-78
2019-02-20T17:34:30.622Z,-77
2019-02-20T17:37:02.448Z,-79
2019-02-20T17:39:34.312Z,-78
2019-02-20T17:42:06.478Z,-76
2019-02-20T17:44:38.334Z,-77
2019-02-20T17:47:09.919Z,-77
2019-02-20T17:49:41.827Z,-77
2019-02-20T17:52:13.794Z,-77
2019-02-20T17:54:45.701Z,-76
2019-02-20T17:57:16.474Z,-80
2019-02-20T17:59:48.307Z,-78
2019-02-20T18:02:20.035Z,-79
2019-02-20T18:04:52.302Z,-79
2019-02-20T18:07:23.893Z,-78
2019-02-20T18:09:55.740Z,-78
2019-02-20T18:12:26.487Z,-78
2019-02-20T18:14:58.788Z,-78
2019-02-20T18:17:30.581Z,-78
2019-02-20T18:20:01.776Z,-79
2019-02-20T18:22:33.257Z,-76
2019-02-20T18:25:04.847Z,-77
2019-02-20T18:27:36.397Z,-77
2019-02-20T19:00:35.906Z,-69
2019-02-20T19:03:08.250Z,-71
2019-02-20T19:05:40.345Z,-70
2019-02-20T19:08:51.111Z,-70
2019-02-20T19:12:04.521Z,-69
2019-02-20T19:15:31.408Z,-71
2019-02-20T19:19:06.084Z,-71
2019-02-20T19:22:17.387Z,-71
2019-02-20T19:26:22.568Z,-71
2019-02-20T19:30:06.616Z,-75
2019-02-20T19:33:39.473Z,-71
2019-02-20T19:37:09.106Z,-70
2019-02-20T19:40:16.276Z,-71
2019-02-20T19:43:42.071Z,-71
2019-02-20T19:47:36.406Z,-71
2019-02-20T19:51:06.525Z,-71
2019-02-20T19:54:45.487Z,-69
2019-02-20T19:58:12.896Z,-70
2019-02-20T20:02:15.320Z,-70
2019-02-20T20:06:04.418Z,-70
2019-02-20T20:09:28.294Z,-70
2019-02-20T20:13:33.925Z,-70
2019-02-20T20:17:21.421Z,-70
2019-02-20T20:20:58.461Z,-70
2019-02-20T20:24:54.038Z,-70
2019-02-20T20:28:29.840Z,-70
2019-02-20T20:32:09.914Z,-70
2019-02-20T20:36:10.448Z,-72
2019-02-20T20:40:50.954Z,-71
2019-02-20T20:44:35.291Z,-71
2019-02-20T20:48:13.710Z,-69
2019-02-20T20:51:36.933Z,-68
2019-02-20T20:55:39.248Z,-69
2019-02-20T20:59:26.347Z,-69
2019-02-20T21:02:46.361Z,-69
2019-02-20T21:06:44.833Z,-69
2019-02-20T21:10:14.055Z,-69
2019-02-20T21:13:38.332Z,-69
2019-02-20T21:17:18.013Z,-69
2019-02-20T21:20:40.355Z,-69
2019-02-20T21:24:26.481Z,-70
2019-02-20T21:28:17.030Z,-69
2019-02-20T21:32:22.083Z,-69
2019-02-20T21:35:44.903Z,-69
2019-02-20T21:39:35.605Z,-70
2019-02-20T21:43:20.605Z,-69
2019-02-20T21:47:14.697Z,-70
2019-02-20T21:50:23.657Z,-70
2019-02-20T21:53:39.709Z,-70
2019-02-20T21:56:41.128Z,-70
2019-02-20T22:00:13.899Z,-69
2019-02-20T22:04:21.009Z,-73
2019-02-20T22:08:09.873Z,-68
2019-02-20T22:12:09.940Z,-71
2019-02-20T22:15:27.913Z,-71
2019-02-20T22:18:53.835Z,-71
2019-02-20T22:22:38.865Z,-71
2019-02-20T22:26:51.338Z,-71
2019-02-20T22:30:34.935Z,-71
2019-02-20T22:34:18.373Z,-71
2019-02-20T22:38:50.863Z,-71
2019-02-20T22:42:46.048Z,-71
2019-02-20T22:45:44.933Z,-71
2019-02-20T22:49:32.287Z,-71
2019-02-20T22:52:51.918Z,-71
2019-02-20T22:56:34.015Z,-71
2019-02-20T23:00:34.381Z,-71
2019-02-20T23:04:15.329Z,-71
2019-02-20T23:08:01.843Z,-71
2019-02-20T23:11:37.880Z,-71
2019-02-20T23:17:44.393Z,-69
2019-02-20T23:20:16.904Z,-71
2019-02-20T23:22:49.362Z,-71
2019-02-20T23:25:21.872Z,-71
2019-02-20T23:27:53.846Z,-71
2019-02-20T23:30:25.879Z,-71
2019-02-20T23:32:57.892Z,-72
2019-02-20T23:35:29.917Z,-72
2019-02-20T23:38:01.853Z,-71
2019-02-20T23:40:33.861Z,-71
2019-02-20T23:43:06.051Z,-72
2019-02-20T23:45:38.347Z,-71
2019-02-20T23:48:10.822Z,-71
2019-02-20T23:50:42.825Z,-71
2019-02-20T23:53:15.290Z,-72
2019-02-20T23:55:47.881Z,-72
2019-02-20T23:58:19.910Z,-71
